sensor_id;sensor_type;location;lat;lon;timestamp;P1;durP1;ratioP1;P2;durP2;ratioP2
50379;SDS011;37474;59.468;18.040;2022-09-29T00:01:29;9.00;;;3.90;;
50379;SDS011;37474;59.468;18.040;2022-09-29T00:03:58;6.20;;;4.00;;
50379;SDS011;37474;59.468;18.040;2022-09-29T00:06:26;7.00;;;3.87;;
50379;SDS011;37474;59.468;18.040;2022-09-29T00:08:56;5.43;;;3.93;;
50379;SDS011;37474;59.468;18.040;2022-09-29T00:11:26;6.47;;;3.63;;
50379;SDS011;37474;59.468;18.040;2022-09-29T00:13:54;5.90;;;3.83;;
50379;SDS011;37474;59.468;18.040;2022-09-29T00:16:24;8.17;;;4.43;;
50379;SDS011;37474;59.468;18.040;2022-09-29T00:18:55;6.37;;;4.07;;
50379;SDS011;37474;59.468;18.040;2022-09-29T00:21:23;6.20;;;4.17;;
50379;SDS011;37474;59.468;18.040;2022-09-29T00:23:53;4.50;;;3.47;;
50379;SDS011;37474;59.468;18.040;2022-09-29T00:26:23;6.07;;;3.40;;
50379;SDS011;37474;59.468;18.040;2022-09-29T00:28:52;6.13;;;3.40;;
50379;SDS011;37474;59.468;18.040;2022-09-29T00:31:23;5.50;;;3.33;;
50379;SDS011;37474;59.468;18.040;2022-09-29T00:33:57;4.97;;;2.80;;
50379;SDS011;37474;59.468;18.040;2022-09-29T00:36:27;4.60;;;2.90;;
50379;SDS011;37474;59.468;18.040;2022-09-29T00:38:58;6.90;;;3.40;;
50379;SDS011;37474;59.468;18.040;2022-09-29T00:41:27;4.87;;;3.00;;
50379;SDS011;37474;59.468;18.040;2022-09-29T00:43:59;5.57;;;3.20;;
50379;SDS011;37474;59.468;18.040;2022-09-29T00:46:32;4.37;;;2.90;;
50379;SDS011;37474;59.468;18.040;2022-09-29T00:49:06;6.23;;;3.63;;
50379;SDS011;37474;59.468;18.040;2022-09-29T00:51:42;6.73;;;3.33;;
50379;SDS011;37474;59.468;18.040;2022-09-29T00:54:15;8.30;;;3.33;;
50379;SDS011;37474;59.468;18.040;2022-09-29T00:56:48;3.93;;;3.10;;
50379;SDS011;37474;59.468;18.040;2022-09-29T00:59:18;5.60;;;3.70;;
50379;SDS011;37474;59.468;18.040;2022-09-29T01:01:55;6.57;;;3.17;;
50379;SDS011;37474;59.468;18.040;2022-09-29T01:04:26;5.67;;;3.40;;
50379;SDS011;37474;59.468;18.040;2022-09-29T01:06:57;5.57;;;3.63;;
50379;SDS011;37474;59.468;18.040;2022-09-29T01:09:26;5.97;;;3.40;;
50379;SDS011;37474;59.468;18.040;2022-09-29T01:11:59;7.67;;;4.20;;
50379;SDS011;37474;59.468;18.040;2022-09-29T01:14:28;8.07;;;3.93;;
50379;SDS011;37474;59.468;18.040;2022-09-29T01:17:00;6.47;;;4.03;;
50379;SDS011;37474;59.468;18.040;2022-09-29T01:19:34;5.27;;;3.67;;
50379;SDS011;37474;59.468;18.040;2022-09-29T01:22:18;7.13;;;4.53;;
50379;SDS011;37474;59.468;18.040;2022-09-29T01:25:06;5.30;;;3.90;;
50379;SDS011;37474;59.468;18.040;2022-09-29T01:28:10;6.73;;;4.47;;
50379;SDS011;37474;59.468;18.040;2022-09-29T01:31:03;7.57;;;4.60;;
50379;SDS011;37474;59.468;18.040;2022-09-29T01:33:46;10.13;;;4.93;;
50379;SDS011;37474;59.468;18.040;2022-09-29T01:36:22;9.03;;;5.23;;
50379;SDS011;37474;59.468;18.040;2022-09-29T01:39:04;7.03;;;4.78;;
50379;SDS011;37474;59.468;18.040;2022-09-29T01:41:43;7.90;;;4.90;;
50379;SDS011;37474;59.468;18.040;2022-09-29T01:44:20;7.53;;;5.00;;
50379;SDS011;37474;59.468;18.040;2022-09-29T01:46:56;8.27;;;5.07;;
50379;SDS011;37474;59.468;18.040;2022-09-29T01:49:31;6.63;;;4.73;;
50379;SDS011;37474;59.468;18.040;2022-09-29T01:52:05;9.60;;;5.10;;
50379;SDS011;37474;59.468;18.040;2022-09-29T01:54:41;10.30;;;5.63;;
50379;SDS011;37474;59.468;18.040;2022-09-29T01:57:17;7.30;;;5.53;;
50379;SDS011;37474;59.468;18.040;2022-09-29T01:59:51;10.10;;;5.93;;
50379;SDS011;37474;59.468;18.040;2022-09-29T02:02:30;9.33;;;5.53;;
50379;SDS011;37474;59.468;18.040;2022-09-29T02:05:06;8.77;;;5.80;;
50379;SDS011;37474;59.468;18.040;2022-09-29T02:07:41;11.00;;;6.07;;
50379;SDS011;37474;59.468;18.040;2022-09-29T02:12:45;10.83;;;5.97;;
50379;SDS011;37474;59.468;18.040;2022-09-29T02:15:17;11.95;;;6.90;;
50379;SDS011;37474;59.468;18.040;2022-09-29T02:17:51;8.53;;;6.37;;
50379;SDS011;37474;59.468;18.040;2022-09-29T02:20:26;13.43;;;7.57;;
50379;SDS011;37474;59.468;18.040;2022-09-29T02:22:56;8.30;;;6.27;;
50379;SDS011;37474;59.468;18.040;2022-09-29T02:25:24;10.97;;;6.60;;
50379;SDS011;37474;59.468;18.040;2022-09-29T02:27:54;10.23;;;6.70;;
50379;SDS011;37474;59.468;18.040;2022-09-29T02:30:24;13.10;;;6.50;;
50379;SDS011;37474;59.468;18.040;2022-09-29T02:32:53;10.40;;;6.63;;
50379;SDS011;37474;59.468;18.040;2022-09-29T02:35:23;11.17;;;6.17;;
50379;SDS011;37474;59.468;18.040;2022-09-29T02:38:02;9.27;;;5.97;;
50379;SDS011;37474;59.468;18.040;2022-09-29T02:40:36;11.83;;;6.90;;
50379;SDS011;37474;59.468;18.040;2022-09-29T02:43:20;9.13;;;6.40;;
50379;SDS011;37474;59.468;18.040;2022-09-29T02:46:05;9.50;;;6.17;;
50379;SDS011;37474;59.468;18.040;2022-09-29T02:48:58;10.27;;;6.63;;
50379;SDS011;37474;59.468;18.040;2022-09-29T02:51:43;10.87;;;6.43;;
50379;SDS011;37474;59.468;18.040;2022-09-29T02:54:18;12.33;;;6.40;;
50379;SDS011;37474;59.468;18.040;2022-09-29T02:57:03;12.33;;;5.97;;
50379;SDS011;37474;59.468;18.040;2022-09-29T02:59:44;13.70;;;6.73;;
50379;SDS011;37474;59.468;18.040;2022-09-29T03:02:26;9.23;;;6.07;;
50379;SDS011;37474;59.468;18.040;2022-09-29T03:04:57;8.23;;;5.70;;
50379;SDS011;37474;59.468;18.040;2022-09-29T03:07:29;9.73;;;6.97;;
50379;SDS011;37474;59.468;18.040;2022-09-29T03:09:59;9.40;;;6.37;;
50379;SDS011;37474;59.468;18.040;2022-09-29T03:12:27;10.30;;;6.40;;
50379;SDS011;37474;59.468;18.040;2022-09-29T03:14:58;9.90;;;6.33;;
50379;SDS011;37474;59.468;18.040;2022-09-29T03:17:28;9.10;;;6.37;;
50379;SDS011;37474;59.468;18.040;2022-09-29T03:19:57;11.67;;;6.60;;
50379;SDS011;37474;59.468;18.040;2022-09-29T03:22:27;14.13;;;6.53;;
50379;SDS011;37474;59.468;18.040;2022-09-29T03:24:57;10.07;;;5.83;;
50379;SDS011;37474;59.468;18.040;2022-09-29T03:27:25;11.67;;;6.47;;
50379;SDS011;37474;59.468;18.040;2022-09-29T03:29:55;12.10;;;6.07;;
50379;SDS011;37474;59.468;18.040;2022-09-29T03:32:25;10.80;;;6.20;;
50379;SDS011;37474;59.468;18.040;2022-09-29T03:34:53;9.17;;;6.10;;
50379;SDS011;37474;59.468;18.040;2022-09-29T03:37:24;7.53;;;5.80;;
50379;SDS011;37474;59.468;18.040;2022-09-29T03:39:54;12.97;;;6.90;;
50379;SDS011;37474;59.468;18.040;2022-09-29T03:42:22;14.10;;;7.10;;
50379;SDS011;37474;59.468;18.040;2022-09-29T03:44:52;8.97;;;6.37;;
50379;SDS011;37474;59.468;18.040;2022-09-29T03:47:22;11.63;;;6.33;;
50379;SDS011;37474;59.468;18.040;2022-09-29T03:49:49;12.33;;;6.17;;
50379;SDS011;37474;59.468;18.040;2022-09-29T03:52:20;10.00;;;6.40;;
50379;SDS011;37474;59.468;18.040;2022-09-29T03:54:53;10.37;;;6.30;;
50379;SDS011;37474;59.468;18.040;2022-09-29T03:57:23;10.73;;;6.27;;
50379;SDS011;37474;59.468;18.040;2022-09-29T03:59:51;11.55;;;6.47;;
50379;SDS011;37474;59.468;18.040;2022-09-29T04:02:19;9.27;;;6.53;;
50379;SDS011;37474;59.468;18.040;2022-09-29T04:04:49;10.07;;;6.47;;
50379;SDS011;37474;59.468;18.040;2022-09-29T04:07:17;8.95;;;6.47;;
50379;SDS011;37474;59.468;18.040;2022-09-29T04:09:48;13.48;;;5.95;;
50379;SDS011;37474;59.468;18.040;2022-09-29T04:12:18;10.63;;;6.17;;
50379;SDS011;37474;59.468;18.040;2022-09-29T04:14:46;12.00;;;5.97;;
50379;SDS011;37474;59.468;18.040;2022-09-29T04:17:15;13.55;;;6.57;;
50379;SDS011;37474;59.468;18.040;2022-09-29T04:19:45;10.43;;;5.67;;
50379;SDS011;37474;59.468;18.040;2022-09-29T04:22:13;10.07;;;5.95;;
50379;SDS011;37474;59.468;18.040;2022-09-29T04:27:16;10.47;;;5.63;;
50379;SDS011;37474;59.468;18.040;2022-09-29T04:29:44;9.03;;;5.33;;
50379;SDS011;37474;59.468;18.040;2022-09-29T04:32:14;9.30;;;5.63;;
50379;SDS011;37474;59.468;18.040;2022-09-29T04:34:44;8.03;;;5.50;;
50379;SDS011;37474;59.468;18.040;2022-09-29T04:37:13;10.27;;;5.67;;
50379;SDS011;37474;59.468;18.040;2022-09-29T04:39:43;13.32;;;6.90;;
50379;SDS011;37474;59.468;18.040;2022-09-29T04:42:13;9.10;;;5.83;;
50379;SDS011;37474;59.468;18.040;2022-09-29T04:44:42;9.87;;;5.47;;
50379;SDS011;37474;59.468;18.040;2022-09-29T04:47:12;9.20;;;5.70;;
50379;SDS011;37474;59.468;18.040;2022-09-29T04:49:42;7.10;;;4.87;;
50379;SDS011;37474;59.468;18.040;2022-09-29T04:52:10;12.35;;;6.13;;
50379;SDS011;37474;59.468;18.040;2022-09-29T04:54:42;11.32;;;6.03;;
50379;SDS011;37474;59.468;18.040;2022-09-29T04:57:10;6.88;;;5.18;;
50379;SDS011;37474;59.468;18.040;2022-09-29T04:59:39;9.63;;;5.70;;
50379;SDS011;37474;59.468;18.040;2022-09-29T05:02:11;9.57;;;5.33;;
50379;SDS011;37474;59.468;18.040;2022-09-29T05:04:39;8.43;;;5.60;;
50379;SDS011;37474;59.468;18.040;2022-09-29T05:07:07;10.63;;;5.53;;
50379;SDS011;37474;59.468;18.040;2022-09-29T05:09:37;9.88;;;4.88;;
50379;SDS011;37474;59.468;18.040;2022-09-29T05:12:04;9.00;;;5.70;;
50379;SDS011;37474;59.468;18.040;2022-09-29T05:14:32;8.97;;;5.70;;
50379;SDS011;37474;59.468;18.040;2022-09-29T05:17:05;10.95;;;5.50;;
50379;SDS011;37474;59.468;18.040;2022-09-29T05:19:33;11.07;;;5.93;;
50379;SDS011;37474;59.468;18.040;2022-09-29T05:22:01;10.67;;;5.90;;
50379;SDS011;37474;59.468;18.040;2022-09-29T05:24:33;8.38;;;5.05;;
50379;SDS011;37474;59.468;18.040;2022-09-29T05:27:03;10.30;;;5.33;;
50379;SDS011;37474;59.468;18.040;2022-09-29T05:29:31;10.33;;;5.50;;
50379;SDS011;37474;59.468;18.040;2022-09-29T05:32:03;10.63;;;5.85;;
50379;SDS011;37474;59.468;18.040;2022-09-29T05:34:32;8.07;;;5.37;;
50379;SDS011;37474;59.468;18.040;2022-09-29T05:37:00;10.17;;;5.37;;
50379;SDS011;37474;59.468;18.040;2022-09-29T05:39:32;10.32;;;5.38;;
50379;SDS011;37474;59.468;18.040;2022-09-29T05:42:00;7.57;;;5.25;;
50379;SDS011;37474;59.468;18.040;2022-09-29T05:44:27;9.37;;;4.70;;
50379;SDS011;37474;59.468;18.040;2022-09-29T05:46:57;9.82;;;5.95;;
50379;SDS011;37474;59.468;18.040;2022-09-29T05:49:27;13.80;;;7.33;;
50379;SDS011;37474;59.468;18.040;2022-09-29T05:51:57;8.70;;;6.17;;
50379;SDS011;37474;59.468;18.040;2022-09-29T05:54:29;16.00;;;9.80;;
50379;SDS011;37474;59.468;18.040;2022-09-29T05:56:57;15.35;;;10.50;;
50379;SDS011;37474;59.468;18.040;2022-09-29T05:59:27;12.00;;;8.50;;
50379;SDS011;37474;59.468;18.040;2022-09-29T06:01:56;11.87;;;7.13;;
50379;SDS011;37474;59.468;18.040;2022-09-29T06:04:24;10.80;;;7.28;;
50379;SDS011;37474;59.468;18.040;2022-09-29T06:06:54;14.17;;;7.20;;
50379;SDS011;37474;59.468;18.040;2022-09-29T06:09:24;7.13;;;5.38;;
50379;SDS011;37474;59.468;18.040;2022-09-29T06:11:52;9.07;;;5.72;;
50379;SDS011;37474;59.468;18.040;2022-09-29T06:14:22;9.48;;;5.47;;
50379;SDS011;37474;59.468;18.040;2022-09-29T06:16:52;11.30;;;5.97;;
50379;SDS011;37474;59.468;18.040;2022-09-29T06:19:20;8.93;;;5.47;;
50379;SDS011;37474;59.468;18.040;2022-09-29T06:21:50;10.18;;;4.60;;
50379;SDS011;37474;59.468;18.040;2022-09-29T06:24:19;9.37;;;5.43;;
50379;SDS011;37474;59.468;18.040;2022-09-29T06:26:56;8.15;;;4.68;;
50379;SDS011;37474;59.468;18.040;2022-09-29T06:29:57;8.80;;;5.33;;
50379;SDS011;37474;59.468;18.040;2022-09-29T06:32:26;6.93;;;4.53;;
50379;SDS011;37474;59.468;18.040;2022-09-29T06:34:53;8.00;;;4.37;;
50379;SDS011;37474;59.468;18.040;2022-09-29T06:37:39;6.80;;;4.00;;
50379;SDS011;37474;59.468;18.040;2022-09-29T06:40:13;7.23;;;4.37;;
50379;SDS011;37474;59.468;18.040;2022-09-29T06:42:43;8.32;;;4.25;;
50379;SDS011;37474;59.468;18.040;2022-09-29T06:45:11;6.88;;;3.92;;
50379;SDS011;37474;59.468;18.040;2022-09-29T06:47:39;6.07;;;3.87;;
50379;SDS011;37474;59.468;18.040;2022-09-29T06:50:07;6.73;;;4.40;;
50379;SDS011;37474;59.468;18.040;2022-09-29T06:52:37;5.55;;;3.67;;
50379;SDS011;37474;59.468;18.040;2022-09-29T06:55:05;4.97;;;3.30;;
50379;SDS011;37474;59.468;18.040;2022-09-29T06:57:39;6.00;;;3.60;;
50379;SDS011;37474;59.468;18.040;2022-09-29T07:00:07;5.30;;;3.80;;
50379;SDS011;37474;59.468;18.040;2022-09-29T07:02:36;4.60;;;3.60;;
50379;SDS011;37474;59.468;18.040;2022-09-29T07:05:06;6.10;;;3.83;;
50379;SDS011;37474;59.468;18.040;2022-09-29T07:07:34;5.57;;;3.50;;
50379;SDS011;37474;59.468;18.040;2022-09-29T07:10:02;7.47;;;3.87;;
50379;SDS011;37474;59.468;18.040;2022-09-29T07:12:30;5.00;;;3.60;;
50379;SDS011;37474;59.468;18.040;2022-09-29T07:15:02;6.57;;;3.40;;
50379;SDS011;37474;59.468;18.040;2022-09-29T07:17:30;4.60;;;3.20;;
50379;SDS011;37474;59.468;18.040;2022-09-29T07:20:00;6.60;;;2.80;;
50379;SDS011;37474;59.468;18.040;2022-09-29T07:22:28;4.47;;;2.80;;
50379;SDS011;37474;59.468;18.040;2022-09-29T07:24:58;6.32;;;3.15;;
50379;SDS011;37474;59.468;18.040;2022-09-29T07:27:26;4.67;;;2.90;;
50379;SDS011;37474;59.468;18.040;2022-09-29T07:29:53;4.33;;;2.63;;
50379;SDS011;37474;59.468;18.040;2022-09-29T07:32:31;2.60;;;2.40;;
50379;SDS011;37474;59.468;18.040;2022-09-29T07:34:59;3.13;;;2.47;;
50379;SDS011;37474;59.468;18.040;2022-09-29T07:37:27;4.13;;;2.50;;
50379;SDS011;37474;59.468;18.040;2022-09-29T07:39:55;6.10;;;2.50;;
50379;SDS011;37474;59.468;18.040;2022-09-29T07:42:27;4.07;;;2.00;;
50379;SDS011;37474;59.468;18.040;2022-09-29T07:44:55;2.67;;;2.30;;
50379;SDS011;37474;59.468;18.040;2022-09-29T07:47:23;2.30;;;2.10;;
50379;SDS011;37474;59.468;18.040;2022-09-29T07:49:54;3.50;;;1.97;;
50379;SDS011;37474;59.468;18.040;2022-09-29T07:52:22;4.97;;;2.40;;
50379;SDS011;37474;59.468;18.040;2022-09-29T07:54:50;3.10;;;2.00;;
50379;SDS011;37474;59.468;18.040;2022-09-29T07:57:22;2.53;;;2.08;;
50379;SDS011;37474;59.468;18.040;2022-09-29T07:59:50;3.47;;;1.90;;
50379;SDS011;37474;59.468;18.040;2022-09-29T08:02:20;3.13;;;1.70;;
50379;SDS011;37474;59.468;18.040;2022-09-29T08:07:26;2.53;;;2.03;;
50379;SDS011;37474;59.468;18.040;2022-09-29T08:09:58;4.63;;;2.50;;
50379;SDS011;37474;59.468;18.040;2022-09-29T08:12:40;3.40;;;2.00;;
50379;SDS011;37474;59.468;18.040;2022-09-29T08:15:10;2.72;;;2.00;;
50379;SDS011;37474;59.468;18.040;2022-09-29T08:17:38;4.47;;;2.27;;
50379;SDS011;37474;59.468;18.040;2022-09-29T08:20:06;3.70;;;2.10;;
50379;SDS011;37474;59.468;18.040;2022-09-29T08:22:38;3.88;;;2.28;;
50379;SDS011;37474;59.468;18.040;2022-09-29T08:25:07;4.10;;;2.23;;
50379;SDS011;37474;59.468;18.040;2022-09-29T08:27:35;2.57;;;2.03;;
50379;SDS011;37474;59.468;18.040;2022-09-29T08:30:22;5.57;;;2.20;;
50379;SDS011;37474;59.468;18.040;2022-09-29T08:32:50;2.22;;;1.98;;
50379;SDS011;37474;59.468;18.040;2022-09-29T08:35:20;3.67;;;2.28;;
50379;SDS011;37474;59.468;18.040;2022-09-29T08:37:51;3.13;;;2.37;;
50379;SDS011;37474;59.468;18.040;2022-09-29T08:40:26;3.73;;;2.27;;
50379;SDS011;37474;59.468;18.040;2022-09-29T08:42:59;2.78;;;2.20;;
50379;SDS011;37474;59.468;18.040;2022-09-29T08:45:39;4.00;;;2.53;;
50379;SDS011;37474;59.468;18.040;2022-09-29T08:48:26;3.13;;;2.67;;
50379;SDS011;37474;59.468;18.040;2022-09-29T08:50:58;3.60;;;2.20;;
50379;SDS011;37474;59.468;18.040;2022-09-29T08:53:34;3.43;;;2.20;;
50379;SDS011;37474;59.468;18.040;2022-09-29T08:56:26;4.17;;;2.20;;
50379;SDS011;37474;59.468;18.040;2022-09-29T08:58:54;4.17;;;2.40;;
50379;SDS011;37474;59.468;18.040;2022-09-29T09:01:22;2.40;;;2.10;;
50379;SDS011;37474;59.468;18.040;2022-09-29T09:04:05;3.25;;;2.15;;
50379;SDS011;37474;59.468;18.040;2022-09-29T09:06:57;2.97;;;2.23;;
50379;SDS011;37474;59.468;18.040;2022-09-29T09:09:46;2.23;;;2.03;;
50379;SDS011;37474;59.468;18.040;2022-09-29T09:12:32;4.57;;;2.63;;
50379;SDS011;37474;59.468;18.040;2022-09-29T09:18:31;2.60;;;2.10;;
50379;SDS011;37474;59.468;18.040;2022-09-29T09:21:18;2.70;;;1.90;;
50379;SDS011;37474;59.468;18.040;2022-09-29T09:23:52;2.50;;;2.00;;
50379;SDS011;37474;59.468;18.040;2022-09-29T09:26:30;2.73;;;2.10;;
50379;SDS011;37474;59.468;18.040;2022-09-29T09:29:03;3.53;;;2.10;;
50379;SDS011;37474;59.468;18.040;2022-09-29T09:31:39;5.30;;;2.67;;
50379;SDS011;37474;59.468;18.040;2022-09-29T09:34:13;2.23;;;1.70;;
50379;SDS011;37474;59.468;18.040;2022-09-29T09:37:06;2.57;;;2.23;;
50379;SDS011;37474;59.468;18.040;2022-09-29T09:39:41;4.17;;;2.10;;
50379;SDS011;37474;59.468;18.040;2022-09-29T09:42:17;2.40;;;1.60;;
50379;SDS011;37474;59.468;18.040;2022-09-29T09:44:49;4.30;;;2.07;;
50379;SDS011;37474;59.468;18.040;2022-09-29T09:47:23;2.43;;;1.80;;
50379;SDS011;37474;59.468;18.040;2022-09-29T09:49:53;3.63;;;1.80;;
50379;SDS011;37474;59.468;18.040;2022-09-29T09:52:26;2.20;;;1.73;;
50379;SDS011;37474;59.468;18.040;2022-09-29T09:55:01;5.67;;;1.70;;
50379;SDS011;37474;59.468;18.040;2022-09-29T09:57:40;4.00;;;2.00;;
50379;SDS011;37474;59.468;18.040;2022-09-29T10:00:22;4.65;;;2.00;;
50379;SDS011;37474;59.468;18.040;2022-09-29T10:02:53;2.30;;;1.80;;
50379;SDS011;37474;59.468;18.040;2022-09-29T10:05:23;3.55;;;1.58;;
50379;SDS011;37474;59.468;18.040;2022-09-29T10:07:58;2.77;;;1.60;;
50379;SDS011;37474;59.468;18.040;2022-09-29T10:10:29;2.87;;;1.60;;
50379;SDS011;37474;59.468;18.040;2022-09-29T10:13:00;4.17;;;1.80;;
50379;SDS011;37474;59.468;18.040;2022-09-29T10:15:31;2.47;;;1.57;;
50379;SDS011;37474;59.468;18.040;2022-09-29T10:18:03;4.03;;;1.73;;
50379;SDS011;37474;59.468;18.040;2022-09-29T10:20:35;1.97;;;1.63;;
50379;SDS011;37474;59.468;18.040;2022-09-29T10:25:54;1.70;;;1.43;;
50379;SDS011;37474;59.468;18.040;2022-09-29T10:28:28;1.60;;;1.50;;
50379;SDS011;37474;59.468;18.040;2022-09-29T10:31:16;1.57;;;1.40;;
50379;SDS011;37474;59.468;18.040;2022-09-29T10:33:53;1.60;;;1.50;;
50379;SDS011;37474;59.468;18.040;2022-09-29T10:36:24;2.03;;;1.60;;
50379;SDS011;37474;59.468;18.040;2022-09-29T10:38:55;3.30;;;1.40;;
50379;SDS011;37474;59.468;18.040;2022-09-29T10:41:28;2.30;;;1.63;;
50379;SDS011;37474;59.468;18.040;2022-09-29T10:46:47;2.80;;;1.30;;
50379;SDS011;37474;59.468;18.040;2022-09-29T10:49:19;2.67;;;1.30;;
50379;SDS011;37474;59.468;18.040;2022-09-29T10:51:51;5.07;;;1.13;;
50379;SDS011;37474;59.468;18.040;2022-09-29T10:54:22;1.23;;;1.00;;
50379;SDS011;37474;59.468;18.040;2022-09-29T10:59:22;1.67;;;1.20;;
50379;SDS011;37474;59.468;18.040;2022-09-29T11:01:52;1.73;;;0.93;;
50379;SDS011;37474;59.468;18.040;2022-09-29T11:04:23;0.83;;;0.73;;
50379;SDS011;37474;59.468;18.040;2022-09-29T11:06:55;2.23;;;1.40;;
50379;SDS011;37474;59.468;18.040;2022-09-29T11:09:29;2.10;;;0.90;;
50379;SDS011;37474;59.468;18.040;2022-09-29T11:12:04;0.80;;;0.80;;
50379;SDS011;37474;59.468;18.040;2022-09-29T11:14:40;0.77;;;0.70;;
50379;SDS011;37474;59.468;18.040;2022-09-29T11:19:57;1.40;;;1.10;;
50379;SDS011;37474;59.468;18.040;2022-09-29T11:22:30;2.30;;;1.10;;
50379;SDS011;37474;59.468;18.040;2022-09-29T11:25:38;1.73;;;0.80;;
50379;SDS011;37474;59.468;18.040;2022-09-29T11:28:20;1.47;;;1.20;;
50379;SDS011;37474;59.468;18.040;2022-09-29T11:31:10;1.40;;;0.73;;
50379;SDS011;37474;59.468;18.040;2022-09-29T11:33:53;1.30;;;0.80;;
50379;SDS011;37474;59.468;18.040;2022-09-29T11:36:34;1.67;;;1.00;;
50379;SDS011;37474;59.468;18.040;2022-09-29T11:39:16;2.20;;;0.87;;
50379;SDS011;37474;59.468;18.040;2022-09-29T11:42:08;2.30;;;0.70;;
50379;SDS011;37474;59.468;18.040;2022-09-29T11:44:57;1.30;;;0.77;;
50379;SDS011;37474;59.468;18.040;2022-09-29T11:47:33;1.73;;;0.70;;
50379;SDS011;37474;59.468;18.040;2022-09-29T11:50:20;0.70;;;0.70;;
50379;SDS011;37474;59.468;18.040;2022-09-29T11:53:10;2.10;;;0.80;;
50379;SDS011;37474;59.468;18.040;2022-09-29T11:56:00;0.70;;;0.70;;
50379;SDS011;37474;59.468;18.040;2022-09-29T11:58:43;2.50;;;0.67;;
50379;SDS011;37474;59.468;18.040;2022-09-29T12:01:23;0.80;;;0.65;;
50379;SDS011;37474;59.468;18.040;2022-09-29T12:06:52;2.00;;;0.77;;
50379;SDS011;37474;59.468;18.040;2022-09-29T12:09:32;0.90;;;0.70;;
50379;SDS011;37474;59.468;18.040;2022-09-29T12:12:12;1.70;;;0.77;;
50379;SDS011;37474;59.468;18.040;2022-09-29T12:14:56;2.60;;;0.70;;
50379;SDS011;37474;59.468;18.040;2022-09-29T12:17:37;2.17;;;0.70;;
50379;SDS011;37474;59.468;18.040;2022-09-29T12:20:15;2.90;;;0.70;;
50379;SDS011;37474;59.468;18.040;2022-09-29T12:22:46;1.50;;;0.80;;
50379;SDS011;37474;59.468;18.040;2022-09-29T12:25:16;0.77;;;0.70;;
50379;SDS011;37474;59.468;18.040;2022-09-29T12:27:47;0.87;;;0.70;;
50379;SDS011;37474;59.468;18.040;2022-09-29T12:30:19;0.60;;;0.60;;
50379;SDS011;37474;59.468;18.040;2022-09-29T12:32:52;0.60;;;0.57;;
50379;SDS011;37474;59.468;18.040;2022-09-29T12:35:28;1.77;;;0.50;;
50379;SDS011;37474;59.468;18.040;2022-09-29T12:38:06;1.70;;;0.53;;
50379;SDS011;37474;59.468;18.040;2022-09-29T12:40:43;1.00;;;0.80;;
50379;SDS011;37474;59.468;18.040;2022-09-29T12:43:18;1.53;;;0.60;;
50379;SDS011;37474;59.468;18.040;2022-09-29T12:45:53;0.80;;;0.60;;
50379;SDS011;37474;59.468;18.040;2022-09-29T12:48:35;1.00;;;0.60;;
50379;SDS011;37474;59.468;18.040;2022-09-29T12:51:17;2.87;;;0.60;;
50379;SDS011;37474;59.468;18.040;2022-09-29T12:53:52;1.03;;;0.63;;
50379;SDS011;37474;59.468;18.040;2022-09-29T12:56:30;1.70;;;0.63;;
50379;SDS011;37474;59.468;18.040;2022-09-29T12:59:05;1.80;;;0.70;;
50379;SDS011;37474;59.468;18.040;2022-09-29T13:01:40;1.53;;;0.70;;
50379;SDS011;37474;59.468;18.040;2022-09-29T13:10:33;2.00;;;0.80;;
50379;SDS011;37474;59.468;18.040;2022-09-29T13:13:20;1.27;;;0.90;;
50379;SDS011;37474;59.468;18.040;2022-09-29T13:16:16;1.40;;;0.83;;
50379;SDS011;37474;59.468;18.040;2022-09-29T13:25:30;1.00;;;0.60;;
50379;SDS011;37474;59.468;18.040;2022-09-29T13:28:19;1.03;;;0.73;;
50379;SDS011;37474;59.468;18.040;2022-09-29T13:30:52;1.37;;;0.70;;
50379;SDS011;37474;59.468;18.040;2022-09-29T13:33:22;4.35;;;0.60;;
50379;SDS011;37474;59.468;18.040;2022-09-29T13:35:52;1.30;;;0.68;;
50379;SDS011;37474;59.468;18.040;2022-09-29T13:38:22;0.70;;;0.57;;
50379;SDS011;37474;59.468;18.040;2022-09-29T13:41:10;1.20;;;0.70;;
50379;SDS011;37474;59.468;18.040;2022-09-29T13:46:38;0.90;;;0.80;;
50379;SDS011;37474;59.468;18.040;2022-09-29T13:49:14;0.60;;;0.60;;
50379;SDS011;37474;59.468;18.040;2022-09-29T13:51:56;0.77;;;0.60;;
50379;SDS011;37474;59.468;18.040;2022-09-29T13:54:33;0.47;;;0.40;;
50379;SDS011;37474;59.468;18.040;2022-09-29T14:02:46;0.70;;;0.70;;
50379;SDS011;37474;59.468;18.040;2022-09-29T14:05:45;1.07;;;0.80;;
50379;SDS011;37474;59.468;18.040;2022-09-29T14:08:16;0.70;;;0.60;;
50379;SDS011;37474;59.468;18.040;2022-09-29T14:10:49;1.30;;;0.63;;
50379;SDS011;37474;59.468;18.040;2022-09-29T14:13:27;0.70;;;0.60;;
50379;SDS011;37474;59.468;18.040;2022-09-29T14:16:03;1.13;;;1.03;;
50379;SDS011;37474;59.468;18.040;2022-09-29T14:18:42;0.70;;;0.70;;
50379;SDS011;37474;59.468;18.040;2022-09-29T14:21:43;1.83;;;0.60;;
50379;SDS011;37474;59.468;18.040;2022-09-29T14:27:22;1.50;;;0.80;;
50379;SDS011;37474;59.468;18.040;2022-09-29T14:32:50;1.23;;;0.80;;
50379;SDS011;37474;59.468;18.040;2022-09-29T14:35:26;2.03;;;1.10;;
50379;SDS011;37474;59.468;18.040;2022-09-29T14:38:02;1.00;;;0.80;;
50379;SDS011;37474;59.468;18.040;2022-09-29T14:40:33;1.67;;;1.00;;
50379;SDS011;37474;59.468;18.040;2022-09-29T14:43:10;3.00;;;0.90;;
50379;SDS011;37474;59.468;18.040;2022-09-29T14:45:52;1.37;;;0.90;;
50379;SDS011;37474;59.468;18.040;2022-09-29T14:48:58;1.97;;;0.90;;
50379;SDS011;37474;59.468;18.040;2022-09-29T14:52:10;2.47;;;1.00;;
50379;SDS011;37474;59.468;18.040;2022-09-29T14:54:52;1.17;;;0.80;;
50379;SDS011;37474;59.468;18.040;2022-09-29T14:57:39;1.63;;;1.00;;
50379;SDS011;37474;59.468;18.040;2022-09-29T15:00:31;1.20;;;1.10;;
50379;SDS011;37474;59.468;18.040;2022-09-29T15:03:12;2.20;;;0.90;;
50379;SDS011;37474;59.468;18.040;2022-09-29T15:06:03;1.10;;;0.90;;
50379;SDS011;37474;59.468;18.040;2022-09-29T15:08:35;1.93;;;1.00;;
50379;SDS011;37474;59.468;18.040;2022-09-29T15:14:15;2.60;;;1.10;;
50379;SDS011;37474;59.468;18.040;2022-09-29T15:16:51;1.20;;;1.10;;
50379;SDS011;37474;59.468;18.040;2022-09-29T15:19:36;1.93;;;0.83;;
50379;SDS011;37474;59.468;18.040;2022-09-29T15:25:00;4.03;;;1.13;;
50379;SDS011;37474;59.468;18.040;2022-09-29T15:27:38;2.07;;;0.80;;
50379;SDS011;37474;59.468;18.040;2022-09-29T15:30:12;1.27;;;0.90;;
50379;SDS011;37474;59.468;18.040;2022-09-29T15:32:44;1.57;;;1.17;;
50379;SDS011;37474;59.468;18.040;2022-09-29T15:35:15;1.93;;;0.93;;
50379;SDS011;37474;59.468;18.040;2022-09-29T15:37:56;1.43;;;1.10;;
50379;SDS011;37474;59.468;18.040;2022-09-29T15:40:41;2.10;;;1.10;;
50379;SDS011;37474;59.468;18.040;2022-09-29T15:43:18;1.85;;;1.20;;
50379;SDS011;37474;59.468;18.040;2022-09-29T15:45:53;1.70;;;1.10;;
50379;SDS011;37474;59.468;18.040;2022-09-29T15:48:28;1.87;;;1.10;;
50379;SDS011;37474;59.468;18.040;2022-09-29T15:50:59;2.17;;;1.00;;
50379;SDS011;37474;59.468;18.040;2022-09-29T15:53:27;1.40;;;1.10;;
50379;SDS011;37474;59.468;18.040;2022-09-29T15:55:57;2.03;;;1.10;;
50379;SDS011;37474;59.468;18.040;2022-09-29T15:58:41;1.93;;;1.20;;
50379;SDS011;37474;59.468;18.040;2022-09-29T16:01:11;1.67;;;1.27;;
50379;SDS011;37474;59.468;18.040;2022-09-29T16:03:44;1.27;;;1.10;;
50379;SDS011;37474;59.468;18.040;2022-09-29T16:06:22;1.13;;;1.03;;
50379;SDS011;37474;59.468;18.040;2022-09-29T16:08:57;1.20;;;1.10;;
50379;SDS011;37474;59.468;18.040;2022-09-29T16:11:29;1.50;;;1.00;;
50379;SDS011;37474;59.468;18.040;2022-09-29T16:14:05;1.10;;;1.00;;